Abingdon, Illinois
Current Conditions -  °F | °C
As of 4:35 AM on Monday 22 Dec 2014 (Local Time) from KGBG Reporting Station
Overcast Overcast  
Wind Chill: 31°   Ceiling: 4300
Heat Index: 36°   Visibility: 7mi
Dew Point: 32°   Wind: 6mph
Humidity: 87%   Direction: 110°ESE
Pressure: 29.83"   Gusts: NA
Location:  40.8°N, 90.4°W
Report Text: KGBG 221035Z AUTO 11005KT 7SM BKN043 OVC060 02/00 A2983 RMK AO2 T00200001
Loading
Personal Weather Stations






























Interactive Weather Map New forecast layout! Learn more

10-Day Weather Forecast

Advertisements
Track Severe Weather on mobile